Aviation Digital Data Service (ADDS)

Output produced by METARs form (1612 UTC 19 October 2017)
found at http://www.aviationweather.gov/adds/metars/
 
METAR text: RJNK 191600Z VRB02KT 9999 -RA FEW005 BKN050 BKN070 14/12 Q1016
Conditions at: RJNK (KOMATSU (CIV/JAS, JP) observed 1600 UTC 19 October 2017
Temperature: 14.0°C (57°F)
Dewpoint: 12.0°C (54°F) [RH = 88%]
Pressure (altimeter): 30.00 inches Hg (1016.0 mb)
Winds: variable direction winds at 2 MPH (2 knots; 1.0 m/s)
Visibility: 6 or more miles (10+ km)
Ceiling: 5000 feet AGL
Clouds: few clouds at 500 feet AGL
broken clouds at 5000 feet AGL
broken clouds at 7000 feet AGL
Weather: -RA  (light rain)